East Corinth, VT (05076)

9:29 PM EDT on April 20, 2015 (GMT -0400)
Goshen Heights | | Change Station
CLOSE
Current Station
Personal Weather Station
Location: Bradford, VT
Elevation: 1060 ft
Nearby Weather Stations

Elev 1060 ft 44.01 °N, 72.14 °W | Updated 21 seconds ago

Overcast
Overcast
44.7 °F
Feels Like 40 °F
N
9.0
Wind Variable Wind from ESE
Gusts 9.0 mph

Today
High -- | Low -- °F
--% Chance of Precip.
Yesterday
High -- | Low -- °F
Precip. -- in
5:57 AM 7:38 PM
Waxing Crescent, 7% visible
Pressure 29.86 in
Visibility 9.0 miles
Clouds Overcast 1500 ft
Windchill 40 °F
Dew Point 42 °F
Humidity 89%
Rainfall 0.00 in
Snow Depth Not available.
UV 0 out of 12
Pollen 7.60 out of 12
Air Quality Not available.
Flu Activity Regional
METAR KMPV 210051Z AUTO 16007KT 9SM OVC015 07/04 A2983 RMK AO2 SLP111 T00670044

More Conditions Fewer Conditions

Pressure 29.86 in
Visibility 9.0 miles
Clouds Overcast 1500 ft
Windchill 40 °F
Dew Point 42 °F
Humidity 89%
Rainfall 0.00 in
Snow Depth Not available.
UV 0 out of 12
Pollen 7.60 out of 12
Air Quality Not available.
Flu Activity Regional
METAR KMPV 210051Z AUTO 16007KT 9SM OVC015 07/04 A2983 RMK AO2 SLP111 T00670044

More Conditions Fewer Conditions

10-Day Weather Forecast

Almanac

Astronomy

Apr. 20, 2015 Rise Set
Actual Time
Civil Twilight
Nautical Twilight
Astronomical Twilight
Moon
Length of Visible Light
Length of Day
Tomorrow will be .
, % of the Moon is Illuminated

Today's Extremes

State Highs State Lows

Community

WunderPhotos

Upload Photos

1,815,274 photos uploaded!

WunderBlogs® & News

Nearby

Air Quality

  Air Quality AQ Index Pollutant
Not available.

Snow Depth

Station Depth Elevation

Earthquake Activity

City Distance Mag. Time & Date
Minimum magnitude displayed is 2.5.

Coastal Water Temperatures

Place Temperature

Stations

Nearby Weather Stations

Station Location Temp. Windchill Dew Point Humidity Wind Precip. Elev Updated Type